sensor_id;sensor_type;location;lat;lon;timestamp;P1;durP1;ratioP1;P2;durP2;ratioP2
15841;SDS011;8021;48.022;11.812;2023-02-11T00:00:56;0.73;;;0.73;;
15841;SDS011;8021;48.022;11.812;2023-02-11T00:03:23;0.73;;;0.73;;
15841;SDS011;8021;48.022;11.812;2023-02-11T00:05:57;0.87;;;0.87;;
15841;SDS011;8021;48.022;11.812;2023-02-11T00:08:25;0.70;;;0.70;;
15841;SDS011;8021;48.022;11.812;2023-02-11T00:10:53;0.60;;;0.60;;
15841;SDS011;8021;48.022;11.812;2023-02-11T00:13:21;0.80;;;0.80;;
15841;SDS011;8021;48.022;11.812;2023-02-11T00:15:50;0.90;;;0.90;;
15841;SDS011;8021;48.022;11.812;2023-02-11T00:18:18;0.70;;;0.70;;
15841;SDS011;8021;48.022;11.812;2023-02-11T00:20:45;0.90;;;0.90;;
15841;SDS011;8021;48.022;11.812;2023-02-11T00:23:13;0.83;;;0.83;;
15841;SDS011;8021;48.022;11.812;2023-02-11T00:25:41;0.90;;;0.90;;
15841;SDS011;8021;48.022;11.812;2023-02-11T00:28:09;0.73;;;0.73;;
15841;SDS011;8021;48.022;11.812;2023-02-11T00:30:38;0.80;;;0.80;;
15841;SDS011;8021;48.022;11.812;2023-02-11T00:33:08;0.70;;;0.70;;
15841;SDS011;8021;48.022;11.812;2023-02-11T00:35:35;0.70;;;0.70;;
15841;SDS011;8021;48.022;11.812;2023-02-11T00:38:05;0.87;;;0.87;;
15841;SDS011;8021;48.022;11.812;2023-02-11T00:40:32;0.87;;;0.87;;
15841;SDS011;8021;48.022;11.812;2023-02-11T00:43:02;0.97;;;0.97;;
15841;SDS011;8021;48.022;11.812;2023-02-11T00:45:29;0.70;;;0.70;;
15841;SDS011;8021;48.022;11.812;2023-02-11T00:47:56;0.80;;;0.80;;
15841;SDS011;8021;48.022;11.812;2023-02-11T00:50:28;0.70;;;0.70;;
15841;SDS011;8021;48.022;11.812;2023-02-11T00:52:55;0.90;;;0.90;;
15841;SDS011;8021;48.022;11.812;2023-02-11T00:55:22;0.90;;;0.90;;
15841;SDS011;8021;48.022;11.812;2023-02-11T00:57:50;0.63;;;0.63;;
15841;SDS011;8021;48.022;11.812;2023-02-11T01:00:17;1.03;;;1.03;;
15841;SDS011;8021;48.022;11.812;2023-02-11T01:02:45;0.80;;;0.80;;
15841;SDS011;8021;48.022;11.812;2023-02-11T01:05:12;0.63;;;0.63;;
15841;SDS011;8021;48.022;11.812;2023-02-11T01:07:44;0.70;;;0.70;;
15841;SDS011;8021;48.022;11.812;2023-02-11T01:10:12;0.80;;;0.80;;
15841;SDS011;8021;48.022;11.812;2023-02-11T01:15:34;0.70;;;0.70;;
15841;SDS011;8021;48.022;11.812;2023-02-11T01:18:03;0.83;;;0.83;;
15841;SDS011;8021;48.022;11.812;2023-02-11T01:20:30;0.83;;;0.83;;
15841;SDS011;8021;48.022;11.812;2023-02-11T01:22:59;0.83;;;0.83;;
15841;SDS011;8021;48.022;11.812;2023-02-11T01:25:26;0.80;;;0.80;;
15841;SDS011;8021;48.022;11.812;2023-02-11T01:27:54;0.70;;;0.70;;
15841;SDS011;8021;48.022;11.812;2023-02-11T01:30:22;0.80;;;0.80;;
15841;SDS011;8021;48.022;11.812;2023-02-11T01:32:49;0.97;;;0.97;;
15841;SDS011;8021;48.022;11.812;2023-02-11T01:35:17;0.80;;;0.80;;
15841;SDS011;8021;48.022;11.812;2023-02-11T01:37:44;0.80;;;0.80;;
15841;SDS011;8021;48.022;11.812;2023-02-11T01:40:15;0.80;;;0.80;;
15841;SDS011;8021;48.022;11.812;2023-02-11T01:42:43;0.70;;;0.70;;
15841;SDS011;8021;48.022;11.812;2023-02-11T01:47:56;0.73;;;0.73;;
15841;SDS011;8021;48.022;11.812;2023-02-11T01:50:27;0.90;;;0.90;;
15841;SDS011;8021;48.022;11.812;2023-02-11T01:52:55;0.73;;;0.73;;
15841;SDS011;8021;48.022;11.812;2023-02-11T01:55:45;0.90;;;0.90;;
15841;SDS011;8021;48.022;11.812;2023-02-11T01:58:34;0.70;;;0.70;;
15841;SDS011;8021;48.022;11.812;2023-02-11T02:01:04;0.70;;;0.70;;
15841;SDS011;8021;48.022;11.812;2023-02-11T02:03:33;0.70;;;0.70;;
15841;SDS011;8021;48.022;11.812;2023-02-11T02:06:02;0.70;;;0.70;;
15841;SDS011;8021;48.022;11.812;2023-02-11T02:08:34;0.60;;;0.60;;
15841;SDS011;8021;48.022;11.812;2023-02-11T02:11:04;0.60;;;0.60;;
15841;SDS011;8021;48.022;11.812;2023-02-11T02:13:35;0.63;;;0.63;;
15841;SDS011;8021;48.022;11.812;2023-02-11T02:16:03;0.70;;;0.70;;
15841;SDS011;8021;48.022;11.812;2023-02-11T02:18:36;0.63;;;0.63;;
15841;SDS011;8021;48.022;11.812;2023-02-11T02:26:55;0.70;;;0.70;;
15841;SDS011;8021;48.022;11.812;2023-02-11T02:32:15;0.70;;;0.70;;
15841;SDS011;8021;48.022;11.812;2023-02-11T02:34:52;0.80;;;0.80;;
15841;SDS011;8021;48.022;11.812;2023-02-11T02:37:23;0.83;;;0.83;;
15841;SDS011;8021;48.022;11.812;2023-02-11T02:39:53;0.70;;;0.70;;
15841;SDS011;8021;48.022;11.812;2023-02-11T02:42:21;0.60;;;0.60;;
15841;SDS011;8021;48.022;11.812;2023-02-11T02:47:43;0.73;;;0.73;;
15841;SDS011;8021;48.022;11.812;2023-02-11T02:50:10;0.77;;;0.77;;
15841;SDS011;8021;48.022;11.812;2023-02-11T02:52:41;0.80;;;0.80;;
15841;SDS011;8021;48.022;11.812;2023-02-11T02:58:07;0.90;;;0.90;;
15841;SDS011;8021;48.022;11.812;2023-02-11T03:00:38;0.80;;;0.80;;
15841;SDS011;8021;48.022;11.812;2023-02-11T03:03:14;0.70;;;0.70;;
15841;SDS011;8021;48.022;11.812;2023-02-11T03:05:46;0.70;;;0.70;;
15841;SDS011;8021;48.022;11.812;2023-02-11T03:08:15;0.87;;;0.87;;
15841;SDS011;8021;48.022;11.812;2023-02-11T03:10:45;0.63;;;0.63;;
15841;SDS011;8021;48.022;11.812;2023-02-11T03:13:13;0.80;;;0.80;;
15841;SDS011;8021;48.022;11.812;2023-02-11T03:15:43;0.90;;;0.90;;
15841;SDS011;8021;48.022;11.812;2023-02-11T03:18:12;0.87;;;0.87;;
15841;SDS011;8021;48.022;11.812;2023-02-11T03:20:43;0.90;;;0.90;;
15841;SDS011;8021;48.022;11.812;2023-02-11T03:23:12;0.80;;;0.80;;
15841;SDS011;8021;48.022;11.812;2023-02-11T03:25:45;0.70;;;0.70;;
15841;SDS011;8021;48.022;11.812;2023-02-11T03:28:17;0.73;;;0.73;;
15841;SDS011;8021;48.022;11.812;2023-02-11T03:30:51;0.80;;;0.80;;
15841;SDS011;8021;48.022;11.812;2023-02-11T03:33:21;0.70;;;0.70;;
15841;SDS011;8021;48.022;11.812;2023-02-11T03:35:52;0.80;;;0.80;;
15841;SDS011;8021;48.022;11.812;2023-02-11T03:38:21;0.73;;;0.73;;
15841;SDS011;8021;48.022;11.812;2023-02-11T03:40:49;0.80;;;0.80;;
15841;SDS011;8021;48.022;11.812;2023-02-11T03:43:17;0.70;;;0.70;;
15841;SDS011;8021;48.022;11.812;2023-02-11T03:45:48;0.70;;;0.70;;
15841;SDS011;8021;48.022;11.812;2023-02-11T03:48:18;0.63;;;0.63;;
15841;SDS011;8021;48.022;11.812;2023-02-11T03:50:47;0.70;;;0.70;;
15841;SDS011;8021;48.022;11.812;2023-02-11T03:53:16;0.80;;;0.80;;
15841;SDS011;8021;48.022;11.812;2023-02-11T03:55:44;0.60;;;0.60;;
15841;SDS011;8021;48.022;11.812;2023-02-11T03:58:14;0.70;;;0.70;;
15841;SDS011;8021;48.022;11.812;2023-02-11T04:00:42;0.70;;;0.70;;
15841;SDS011;8021;48.022;11.812;2023-02-11T04:03:10;0.70;;;0.70;;
15841;SDS011;8021;48.022;11.812;2023-02-11T04:05:38;0.90;;;0.90;;
15841;SDS011;8021;48.022;11.812;2023-02-11T04:08:05;0.80;;;0.80;;
15841;SDS011;8021;48.022;11.812;2023-02-11T04:10:34;0.87;;;0.87;;
15841;SDS011;8021;48.022;11.812;2023-02-11T04:13:02;0.73;;;0.73;;
15841;SDS011;8021;48.022;11.812;2023-02-11T04:15:29;0.80;;;0.80;;
15841;SDS011;8021;48.022;11.812;2023-02-11T04:17:56;0.80;;;0.80;;
15841;SDS011;8021;48.022;11.812;2023-02-11T04:20:24;0.90;;;0.90;;
15841;SDS011;8021;48.022;11.812;2023-02-11T04:22:51;0.80;;;0.80;;
15841;SDS011;8021;48.022;11.812;2023-02-11T04:25:19;0.80;;;0.80;;
15841;SDS011;8021;48.022;11.812;2023-02-11T04:27:48;0.80;;;0.80;;
15841;SDS011;8021;48.022;11.812;2023-02-11T04:30:15;0.90;;;0.90;;
15841;SDS011;8021;48.022;11.812;2023-02-11T04:32:43;0.70;;;0.70;;
15841;SDS011;8021;48.022;11.812;2023-02-11T04:35:10;0.83;;;0.83;;
15841;SDS011;8021;48.022;11.812;2023-02-11T04:37:38;0.90;;;0.90;;
15841;SDS011;8021;48.022;11.812;2023-02-11T04:40:06;0.90;;;0.90;;
15841;SDS011;8021;48.022;11.812;2023-02-11T04:42:33;0.60;;;0.60;;
15841;SDS011;8021;48.022;11.812;2023-02-11T04:45:02;0.77;;;0.77;;
15841;SDS011;8021;48.022;11.812;2023-02-11T04:47:30;0.77;;;0.77;;
15841;SDS011;8021;48.022;11.812;2023-02-11T04:49:57;0.90;;;0.90;;
15841;SDS011;8021;48.022;11.812;2023-02-11T04:52:25;0.90;;;0.90;;
15841;SDS011;8021;48.022;11.812;2023-02-11T04:54:52;0.90;;;0.90;;
15841;SDS011;8021;48.022;11.812;2023-02-11T04:57:19;1.00;;;1.00;;
15841;SDS011;8021;48.022;11.812;2023-02-11T04:59:47;0.77;;;0.77;;
15841;SDS011;8021;48.022;11.812;2023-02-11T05:02:16;0.90;;;0.90;;
15841;SDS011;8021;48.022;11.812;2023-02-11T05:04:43;0.80;;;0.80;;
15841;SDS011;8021;48.022;11.812;2023-02-11T05:07:11;0.77;;;0.77;;
15841;SDS011;8021;48.022;11.812;2023-02-11T05:09:38;0.70;;;0.70;;
15841;SDS011;8021;48.022;11.812;2023-02-11T05:12:06;0.70;;;0.70;;
15841;SDS011;8021;48.022;11.812;2023-02-11T05:14:33;0.80;;;0.80;;
15841;SDS011;8021;48.022;11.812;2023-02-11T05:17:01;0.90;;;0.90;;
15841;SDS011;8021;48.022;11.812;2023-02-11T05:19:29;0.80;;;0.80;;
15841;SDS011;8021;48.022;11.812;2023-02-11T05:21:57;0.70;;;0.70;;
15841;SDS011;8021;48.022;11.812;2023-02-11T05:24:28;0.60;;;0.60;;
15841;SDS011;8021;48.022;11.812;2023-02-11T05:26:56;0.90;;;0.90;;
15841;SDS011;8021;48.022;11.812;2023-02-11T05:29:23;0.90;;;0.90;;
15841;SDS011;8021;48.022;11.812;2023-02-11T05:31:51;0.90;;;0.90;;
15841;SDS011;8021;48.022;11.812;2023-02-11T05:34:18;0.70;;;0.70;;
15841;SDS011;8021;48.022;11.812;2023-02-11T05:36:47;0.83;;;0.83;;
15841;SDS011;8021;48.022;11.812;2023-02-11T05:39:14;1.00;;;1.00;;
15841;SDS011;8021;48.022;11.812;2023-02-11T05:41:42;0.80;;;0.80;;
15841;SDS011;8021;48.022;11.812;2023-02-11T05:44:09;0.63;;;0.63;;
15841;SDS011;8021;48.022;11.812;2023-02-11T05:46:37;0.90;;;0.90;;
15841;SDS011;8021;48.022;11.812;2023-02-11T05:49:04;0.80;;;0.80;;
15841;SDS011;8021;48.022;11.812;2023-02-11T05:51:34;0.80;;;0.80;;
15841;SDS011;8021;48.022;11.812;2023-02-11T05:54:03;0.87;;;0.87;;
15841;SDS011;8021;48.022;11.812;2023-02-11T05:56:30;0.90;;;0.90;;
15841;SDS011;8021;48.022;11.812;2023-02-11T05:58:58;0.90;;;0.90;;
15841;SDS011;8021;48.022;11.812;2023-02-11T06:01:26;0.70;;;0.70;;
15841;SDS011;8021;48.022;11.812;2023-02-11T06:03:53;0.70;;;0.70;;
15841;SDS011;8021;48.022;11.812;2023-02-11T06:06:21;0.87;;;0.87;;
15841;SDS011;8021;48.022;11.812;2023-02-11T06:08:48;0.70;;;0.70;;
15841;SDS011;8021;48.022;11.812;2023-02-11T06:11:17;0.70;;;0.70;;
15841;SDS011;8021;48.022;11.812;2023-02-11T06:13:45;0.70;;;0.70;;
15841;SDS011;8021;48.022;11.812;2023-02-11T06:16:12;0.60;;;0.60;;
15841;SDS011;8021;48.022;11.812;2023-02-11T06:18:40;0.70;;;0.70;;
15841;SDS011;8021;48.022;11.812;2023-02-11T06:21:08;0.70;;;0.70;;
15841;SDS011;8021;48.022;11.812;2023-02-11T06:23:35;0.70;;;0.70;;
15841;SDS011;8021;48.022;11.812;2023-02-11T06:26:03;0.67;;;0.67;;
15841;SDS011;8021;48.022;11.812;2023-02-11T06:28:33;0.73;;;0.73;;
15841;SDS011;8021;48.022;11.812;2023-02-11T06:31:03;0.60;;;0.60;;
15841;SDS011;8021;48.022;11.812;2023-02-11T06:33:32;0.80;;;0.80;;
15841;SDS011;8021;48.022;11.812;2023-02-11T06:35:59;0.60;;;0.60;;
15841;SDS011;8021;48.022;11.812;2023-02-11T06:38:27;0.60;;;0.60;;
15841;SDS011;8021;48.022;11.812;2023-02-11T06:40:54;0.73;;;0.73;;
15841;SDS011;8021;48.022;11.812;2023-02-11T06:43:21;0.70;;;0.70;;
15841;SDS011;8021;48.022;11.812;2023-02-11T06:45:52;0.70;;;0.70;;
15841;SDS011;8021;48.022;11.812;2023-02-11T06:48:20;0.70;;;0.70;;
15841;SDS011;8021;48.022;11.812;2023-02-11T06:50:48;0.80;;;0.80;;
15841;SDS011;8021;48.022;11.812;2023-02-11T06:53:15;0.70;;;0.70;;
15841;SDS011;8021;48.022;11.812;2023-02-11T06:55:43;0.80;;;0.80;;
15841;SDS011;8021;48.022;11.812;2023-02-11T06:58:10;0.80;;;0.80;;
15841;SDS011;8021;48.022;11.812;2023-02-11T07:00:37;0.80;;;0.80;;
15841;SDS011;8021;48.022;11.812;2023-02-11T07:03:06;0.80;;;0.80;;
15841;SDS011;8021;48.022;11.812;2023-02-11T07:05:34;0.80;;;0.80;;
15841;SDS011;8021;48.022;11.812;2023-02-11T07:08:03;0.60;;;0.60;;
15841;SDS011;8021;48.022;11.812;2023-02-11T07:10:32;0.57;;;0.57;;
15841;SDS011;8021;48.022;11.812;2023-02-11T07:12:59;0.60;;;0.60;;
15841;SDS011;8021;48.022;11.812;2023-02-11T07:15:29;0.70;;;0.70;;
15841;SDS011;8021;48.022;11.812;2023-02-11T07:17:56;0.80;;;0.80;;
15841;SDS011;8021;48.022;11.812;2023-02-11T07:20:26;0.70;;;0.70;;
15841;SDS011;8021;48.022;11.812;2023-02-11T07:22:53;0.70;;;0.70;;
15841;SDS011;8021;48.022;11.812;2023-02-11T07:25:21;0.70;;;0.70;;
15841;SDS011;8021;48.022;11.812;2023-02-11T07:27:48;0.70;;;0.70;;
15841;SDS011;8021;48.022;11.812;2023-02-11T07:30:16;0.80;;;0.80;;
15841;SDS011;8021;48.022;11.812;2023-02-11T07:32:43;0.60;;;0.60;;
15841;SDS011;8021;48.022;11.812;2023-02-11T07:35:11;0.70;;;0.70;;
15841;SDS011;8021;48.022;11.812;2023-02-11T07:37:41;0.57;;;0.57;;
15841;SDS011;8021;48.022;11.812;2023-02-11T07:40:08;0.80;;;0.80;;
15841;SDS011;8021;48.022;11.812;2023-02-11T07:42:36;0.60;;;0.60;;
15841;SDS011;8021;48.022;11.812;2023-02-11T07:45:05;0.60;;;0.60;;
15841;SDS011;8021;48.022;11.812;2023-02-11T07:47:34;0.60;;;0.60;;
15841;SDS011;8021;48.022;11.812;2023-02-11T07:50:02;0.50;;;0.50;;
15841;SDS011;8021;48.022;11.812;2023-02-11T07:52:29;0.50;;;0.50;;
15841;SDS011;8021;48.022;11.812;2023-02-11T07:54:58;0.53;;;0.53;;
15841;SDS011;8021;48.022;11.812;2023-02-11T07:57:29;0.50;;;0.50;;
15841;SDS011;8021;48.022;11.812;2023-02-11T07:59:57;0.50;;;0.50;;
15841;SDS011;8021;48.022;11.812;2023-02-11T08:02:24;0.50;;;0.50;;
15841;SDS011;8021;48.022;11.812;2023-02-11T08:04:52;0.43;;;0.43;;
15841;SDS011;8021;48.022;11.812;2023-02-11T08:07:19;0.50;;;0.50;;
15841;SDS011;8021;48.022;11.812;2023-02-11T08:09:46;0.45;;;0.45;;
15841;SDS011;8021;48.022;11.812;2023-02-11T08:12:15;0.60;;;0.60;;
15841;SDS011;8021;48.022;11.812;2023-02-11T08:14:43;0.40;;;0.40;;
15841;SDS011;8021;48.022;11.812;2023-02-11T08:17:10;0.40;;;0.40;;
15841;SDS011;8021;48.022;11.812;2023-02-11T08:19:38;0.38;;;0.38;;
15841;SDS011;8021;48.022;11.812;2023-02-11T08:22:05;0.50;;;0.50;;
15841;SDS011;8021;48.022;11.812;2023-02-11T08:24:33;0.50;;;0.50;;
15841;SDS011;8021;48.022;11.812;2023-02-11T08:27:00;0.40;;;0.40;;
15841;SDS011;8021;48.022;11.812;2023-02-11T08:29:29;0.40;;;0.40;;
15841;SDS011;8021;48.022;11.812;2023-02-11T08:31:57;0.40;;;0.40;;
15841;SDS011;8021;48.022;11.812;2023-02-11T08:34:24;0.45;;;0.45;;
15841;SDS011;8021;48.022;11.812;2023-02-11T08:36:51;0.30;;;0.30;;
15841;SDS011;8021;48.022;11.812;2023-02-11T08:39:20;0.38;;;0.38;;
15841;SDS011;8021;48.022;11.812;2023-02-11T08:41:48;0.40;;;0.40;;
15841;SDS011;8021;48.022;11.812;2023-02-11T08:44:16;0.30;;;0.30;;
15841;SDS011;8021;48.022;11.812;2023-02-11T08:46:44;0.40;;;0.40;;
15841;SDS011;8021;48.022;11.812;2023-02-11T08:49:12;0.40;;;0.40;;
15841;SDS011;8021;48.022;11.812;2023-02-11T08:51:39;0.38;;;0.38;;
15841;SDS011;8021;48.022;11.812;2023-02-11T08:54:07;0.32;;;0.32;;
15841;SDS011;8021;48.022;11.812;2023-02-11T08:56:35;0.40;;;0.40;;
15841;SDS011;8021;48.022;11.812;2023-02-11T08:59:03;0.32;;;0.32;;
15841;SDS011;8021;48.022;11.812;2023-02-11T09:01:30;0.30;;;0.30;;
15841;SDS011;8021;48.022;11.812;2023-02-11T09:03:59;0.40;;;0.40;;
15841;SDS011;8021;48.022;11.812;2023-02-11T09:06:27;0.30;;;0.30;;
15841;SDS011;8021;48.022;11.812;2023-02-11T09:08:56;0.45;;;0.45;;
15841;SDS011;8021;48.022;11.812;2023-02-11T09:11:25;0.30;;;0.30;;
15841;SDS011;8021;48.022;11.812;2023-02-11T09:13:52;0.40;;;0.40;;
15841;SDS011;8021;48.022;11.812;2023-02-11T09:16:20;0.40;;;0.40;;
15841;SDS011;8021;48.022;11.812;2023-02-11T09:18:48;0.40;;;0.40;;
15841;SDS011;8021;48.022;11.812;2023-02-11T09:21:17;0.50;;;0.50;;
15841;SDS011;8021;48.022;11.812;2023-02-11T09:23:45;0.50;;;0.50;;
15841;SDS011;8021;48.022;11.812;2023-02-11T09:26:14;0.40;;;0.40;;
15841;SDS011;8021;48.022;11.812;2023-02-11T09:28:42;0.32;;;0.32;;
15841;SDS011;8021;48.022;11.812;2023-02-11T09:31:10;0.40;;;0.40;;
15841;SDS011;8021;48.022;11.812;2023-02-11T09:33:38;0.40;;;0.40;;
15841;SDS011;8021;48.022;11.812;2023-02-11T09:36:07;0.40;;;0.40;;
15841;SDS011;8021;48.022;11.812;2023-02-11T09:38:36;0.40;;;0.40;;
15841;SDS011;8021;48.022;11.812;2023-02-11T09:41:04;0.30;;;0.30;;
15841;SDS011;8021;48.022;11.812;2023-02-11T09:43:56;0.30;;;0.30;;
15841;SDS011;8021;48.022;11.812;2023-02-11T09:46:24;0.47;;;0.47;;
15841;SDS011;8021;48.022;11.812;2023-02-11T09:48:53;0.40;;;0.40;;
15841;SDS011;8021;48.022;11.812;2023-02-11T09:51:23;0.40;;;0.40;;
15841;SDS011;8021;48.022;11.812;2023-02-11T09:53:57;0.30;;;0.30;;
15841;SDS011;8021;48.022;11.812;2023-02-11T09:56:30;0.40;;;0.40;;
15841;SDS011;8021;48.022;11.812;2023-02-11T09:58:58;0.30;;;0.30;;
15841;SDS011;8021;48.022;11.812;2023-02-11T10:01:26;0.32;;;0.32;;
15841;SDS011;8021;48.022;11.812;2023-02-11T10:03:59;0.35;;;0.35;;
15841;SDS011;8021;48.022;11.812;2023-02-11T10:06:32;0.30;;;0.30;;
15841;SDS011;8021;48.022;11.812;2023-02-11T10:09:06;0.30;;;0.30;;
15841;SDS011;8021;48.022;11.812;2023-02-11T10:11:39;0.38;;;0.38;;
15841;SDS011;8021;48.022;11.812;2023-02-11T10:14:11;0.30;;;0.30;;
15841;SDS011;8021;48.022;11.812;2023-02-11T10:16:49;0.50;;;0.50;;
15841;SDS011;8021;48.022;11.812;2023-02-11T10:19:23;0.40;;;0.40;;
15841;SDS011;8021;48.022;11.812;2023-02-11T10:21:56;0.32;;;0.32;;
15841;SDS011;8021;48.022;11.812;2023-02-11T10:24:27;0.30;;;0.30;;
15841;SDS011;8021;48.022;11.812;2023-02-11T10:26:54;0.30;;;0.30;;
15841;SDS011;8021;48.022;11.812;2023-02-11T10:29:25;0.30;;;0.30;;
15841;SDS011;8021;48.022;11.812;2023-02-11T10:31:56;0.40;;;0.40;;
15841;SDS011;8021;48.022;11.812;2023-02-11T10:34:25;0.40;;;0.40;;
15841;SDS011;8021;48.022;11.812;2023-02-11T10:36:52;0.40;;;0.40;;
15841;SDS011;8021;48.022;11.812;2023-02-11T10:39:21;0.30;;;0.30;;
15841;SDS011;8021;48.022;11.812;2023-02-11T10:41:51;0.40;;;0.40;;
15841;SDS011;8021;48.022;11.812;2023-02-11T10:44:21;0.30;;;0.30;;
15841;SDS011;8021;48.022;11.812;2023-02-11T10:46:49;0.30;;;0.30;;
15841;SDS011;8021;48.022;11.812;2023-02-11T10:49:31;0.30;;;0.30;;
15841;SDS011;8021;48.022;11.812;2023-02-11T10:52:11;0.40;;;0.40;;
15841;SDS011;8021;48.022;11.812;2023-02-11T10:54:38;0.30;;;0.30;;
15841;SDS011;8021;48.022;11.812;2023-02-11T10:57:11;0.35;;;0.35;;
15841;SDS011;8021;48.022;11.812;2023-02-11T10:59:44;0.40;;;0.40;;
15841;SDS011;8021;48.022;11.812;2023-02-11T11:02:18;0.40;;;0.40;;
15841;SDS011;8021;48.022;11.812;2023-02-11T11:04:47;0.40;;;0.40;;
15841;SDS011;8021;48.022;11.812;2023-02-11T11:07:17;0.30;;;0.30;;
15841;SDS011;8021;48.022;11.812;2023-02-11T11:09:49;0.50;;;0.50;;
15841;SDS011;8021;48.022;11.812;2023-02-11T11:12:29;0.40;;;0.40;;
15841;SDS011;8021;48.022;11.812;2023-02-11T11:14:58;0.30;;;0.30;;
15841;SDS011;8021;48.022;11.812;2023-02-11T11:17:26;0.40;;;0.40;;
15841;SDS011;8021;48.022;11.812;2023-02-11T11:22:42;0.40;;;0.40;;
15841;SDS011;8021;48.022;11.812;2023-02-11T11:25:19;0.40;;;0.40;;
15841;SDS011;8021;48.022;11.812;2023-02-11T11:27:48;0.32;;;0.32;;
15841;SDS011;8021;48.022;11.812;2023-02-11T11:30:16;0.43;;;0.43;;
15841;SDS011;8021;48.022;11.812;2023-02-11T11:32:44;0.47;;;0.47;;
15841;SDS011;8021;48.022;11.812;2023-02-11T11:35:23;0.30;;;0.30;;
15841;SDS011;8021;48.022;11.812;2023-02-11T11:37:54;0.40;;;0.40;;
15841;SDS011;8021;48.022;11.812;2023-02-11T11:40:27;0.38;;;0.38;;
15841;SDS011;8021;48.022;11.812;2023-02-11T11:43:03;0.40;;;0.40;;
15841;SDS011;8021;48.022;11.812;2023-02-11T11:45:31;0.38;;;0.38;;
15841;SDS011;8021;48.022;11.812;2023-02-11T11:47:59;0.40;;;0.40;;
15841;SDS011;8021;48.022;11.812;2023-02-11T11:50:29;0.30;;;0.30;;
15841;SDS011;8021;48.022;11.812;2023-02-11T11:52:59;0.35;;;0.35;;
15841;SDS011;8021;48.022;11.812;2023-02-11T11:55:30;0.40;;;0.40;;
15841;SDS011;8021;48.022;11.812;2023-02-11T11:57:59;0.40;;;0.40;;
15841;SDS011;8021;48.022;11.812;2023-02-11T12:00:30;0.30;;;0.30;;
15841;SDS011;8021;48.022;11.812;2023-02-11T12:03:16;0.40;;;0.40;;
15841;SDS011;8021;48.022;11.812;2023-02-11T12:05:51;0.32;;;0.32;;
15841;SDS011;8021;48.022;11.812;2023-02-11T12:08:27;0.40;;;0.40;;
15841;SDS011;8021;48.022;11.812;2023-02-11T12:11:01;0.40;;;0.40;;
15841;SDS011;8021;48.022;11.812;2023-02-11T12:13:36;0.40;;;0.40;;
15841;SDS011;8021;48.022;11.812;2023-02-11T12:16:08;0.30;;;0.30;;
15841;SDS011;8021;48.022;11.812;2023-02-11T12:18:43;0.32;;;0.32;;
15841;SDS011;8021;48.022;11.812;2023-02-11T12:21:18;0.40;;;0.40;;
15841;SDS011;8021;48.022;11.812;2023-02-11T12:23:55;0.35;;;0.35;;
15841;SDS011;8021;48.022;11.812;2023-02-11T12:26:26;0.40;;;0.40;;
15841;SDS011;8021;48.022;11.812;2023-02-11T12:28:59;0.45;;;0.45;;
15841;SDS011;8021;48.022;11.812;2023-02-11T12:31:34;0.45;;;0.45;;
15841;SDS011;8021;48.022;11.812;2023-02-11T12:34:14;0.30;;;0.30;;
15841;SDS011;8021;48.022;11.812;2023-02-11T12:36:46;0.30;;;0.30;;
15841;SDS011;8021;48.022;11.812;2023-02-11T12:39:22;0.40;;;0.40;;
15841;SDS011;8021;48.022;11.812;2023-02-11T12:41:55;0.40;;;0.40;;
15841;SDS011;8021;48.022;11.812;2023-02-11T12:44:39;0.40;;;0.40;;
15841;SDS011;8021;48.022;11.812;2023-02-11T12:47:15;0.40;;;0.40;;
15841;SDS011;8021;48.022;11.812;2023-02-11T12:52:33;0.30;;;0.30;;
15841;SDS011;8021;48.022;11.812;2023-02-11T12:55:17;0.40;;;0.40;;
15841;SDS011;8021;48.022;11.812;2023-02-11T12:57:46;0.30;;;0.30;;
15841;SDS011;8021;48.022;11.812;2023-02-11T13:00:16;0.40;;;0.40;;
15841;SDS011;8021;48.022;11.812;2023-02-11T13:02:48;0.40;;;0.40;;
15841;SDS011;8021;48.022;11.812;2023-02-11T13:05:19;0.35;;;0.35;;
15841;SDS011;8021;48.022;11.812;2023-02-11T13:07:48;0.32;;;0.32;;
15841;SDS011;8021;48.022;11.812;2023-02-11T13:10:26;0.30;;;0.30;;
15841;SDS011;8021;48.022;11.812;2023-02-11T13:12:56;0.35;;;0.35;;
15841;SDS011;8021;48.022;11.812;2023-02-11T13:15:44;0.30;;;0.30;;
15841;SDS011;8021;48.022;11.812;2023-02-11T13:18:18;0.40;;;0.40;;
15841;SDS011;8021;48.022;11.812;2023-02-11T13:20:50;0.40;;;0.40;;
15841;SDS011;8021;48.022;11.812;2023-02-11T13:23:20;0.30;;;0.30;;
15841;SDS011;8021;48.022;11.812;2023-02-11T13:25:49;0.40;;;0.40;;
15841;SDS011;8021;48.022;11.812;2023-02-11T13:28:22;0.40;;;0.40;;
15841;SDS011;8021;48.022;11.812;2023-02-11T13:30:51;0.40;;;0.40;;
15841;SDS011;8021;48.022;11.812;2023-02-11T13:33:32;0.40;;;0.40;;
15841;SDS011;8021;48.022;11.812;2023-02-11T13:36:10;0.40;;;0.40;;
15841;SDS011;8021;48.022;11.812;2023-02-11T13:38:38;0.40;;;0.40;;
15841;SDS011;8021;48.022;11.812;2023-02-11T13:41:09;0.40;;;0.40;;
15841;SDS011;8021;48.022;11.812;2023-02-11T13:43:41;0.30;;;0.30;;
15841;SDS011;8021;48.022;11.812;2023-02-11T13:46:10;0.30;;;0.30;;
15841;SDS011;8021;48.022;11.812;2023-02-11T13:48:44;0.30;;;0.30;;
15841;SDS011;8021;48.022;11.812;2023-02-11T13:51:13;0.40;;;0.40;;
15841;SDS011;8021;48.022;11.812;2023-02-11T13:53:43;0.40;;;0.40;;
15841;SDS011;8021;48.022;11.812;2023-02-11T13:56:11;0.30;;;0.30;;
15841;SDS011;8021;48.022;11.812;2023-02-11T13:58:49;0.50;;;0.50;;
15841;SDS011;8021;48.022;11.812;2023-02-11T14:04:17;0.30;;;0.30;;
15841;SDS011;8021;48.022;11.812;2023-02-11T14:07:24;0.40;;;0.40;;
15841;SDS011;8021;48.022;11.812;2023-02-11T14:13:04;0.38;;;0.38;;
15841;SDS011;8021;48.022;11.812;2023-02-11T14:15:39;0.30;;;0.30;;
15841;SDS011;8021;48.022;11.812;2023-02-11T14:20:54;0.35;;;0.35;;
15841;SDS011;8021;48.022;11.812;2023-02-11T14:23:36;0.30;;;0.30;;
15841;SDS011;8021;48.022;11.812;2023-02-11T14:28:46;0.30;;;0.30;;
15841;SDS011;8021;48.022;11.812;2023-02-11T14:31:16;0.32;;;0.32;;
15841;SDS011;8021;48.022;11.812;2023-02-11T14:33:57;0.40;;;0.40;;
15841;SDS011;8021;48.022;11.812;2023-02-11T14:39:16;0.30;;;0.30;;
15841;SDS011;8021;48.022;11.812;2023-02-11T14:41:45;0.43;;;0.43;;
15841;SDS011;8021;48.022;11.812;2023-02-11T14:44:16;0.30;;;0.30;;
15841;SDS011;8021;48.022;11.812;2023-02-11T14:46:46;0.40;;;0.40;;
15841;SDS011;8021;48.022;11.812;2023-02-11T14:49:15;0.30;;;0.30;;
15841;SDS011;8021;48.022;11.812;2023-02-11T14:51:46;0.40;;;0.40;;
15841;SDS011;8021;48.022;11.812;2023-02-11T14:54:15;0.30;;;0.30;;
15841;SDS011;8021;48.022;11.812;2023-02-11T14:56:43;0.30;;;0.30;;
15841;SDS011;8021;48.022;11.812;2023-02-11T14:59:14;0.40;;;0.40;;
15841;SDS011;8021;48.022;11.812;2023-02-11T15:01:44;0.30;;;0.30;;
15841;SDS011;8021;48.022;11.812;2023-02-11T15:04:21;0.38;;;0.38;;
15841;SDS011;8021;48.022;11.812;2023-02-11T15:06:49;0.30;;;0.30;;
15841;SDS011;8021;48.022;11.812;2023-02-11T15:09:20;0.40;;;0.40;;
15841;SDS011;8021;48.022;11.812;2023-02-11T15:11:50;0.40;;;0.40;;
15841;SDS011;8021;48.022;11.812;2023-02-11T15:14:20;0.30;;;0.30;;
15841;SDS011;8021;48.022;11.812;2023-02-11T15:16:49;0.40;;;0.40;;
15841;SDS011;8021;48.022;11.812;2023-02-11T15:19:20;0.30;;;0.30;;
15841;SDS011;8021;48.022;11.812;2023-02-11T15:21:49;0.40;;;0.40;;
15841;SDS011;8021;48.022;11.812;2023-02-11T15:24:22;0.40;;;0.40;;
15841;SDS011;8021;48.022;11.812;2023-02-11T15:26:54;0.30;;;0.30;;
15841;SDS011;8021;48.022;11.812;2023-02-11T15:29:22;0.30;;;0.30;;
15841;SDS011;8021;48.022;11.812;2023-02-11T15:32:01;0.30;;;0.30;;
15841;SDS011;8021;48.022;11.812;2023-02-11T15:34:29;0.43;;;0.43;;
15841;SDS011;8021;48.022;11.812;2023-02-11T15:36:57;0.30;;;0.30;;
15841;SDS011;8021;48.022;11.812;2023-02-11T15:39:32;0.40;;;0.40;;
15841;SDS011;8021;48.022;11.812;2023-02-11T15:42:16;0.30;;;0.30;;
15841;SDS011;8021;48.022;11.812;2023-02-11T15:44:44;0.32;;;0.32;;